Time;durP1;ratioP1;P1;durP2;ratioP2;P2;SDS_P1;SDS_P2;PMS_P1;PMS_P2;Temp;Humidity;BMP_temperature;BMP_pressure;BME280_temperature;BME280_humidity;BME280_pressure;Samples;Min_cycle;Max_cycle;Signal;HPM_P1;HPM_P2
2022/03/12 00:01:21;;;;;;;;;;;18.00;57.20;;;;;;5002486;28;20273;-67
2022/03/12 00:03:47;;;;;;;;;;;18.00;57.10;;;;;;5003035;28;19924;-66
2022/03/12 00:06:13;;;;;;;;;;;17.90;57.10;;;;;;5002522;28;19936;-66
2022/03/12 00:08:44;;;;;;;;;;;17.90;57.10;;;;;;5003104;28;20376;-66
2022/03/12 00:11:10;;;;;;;;;;;17.90;57.10;;;;;;5001235;28;20012;-66
2022/03/12 00:13:35;;;;;;;;;;;17.90;57.00;;;;;;5003947;28;20008;-66
2022/03/12 00:16:01;;;;;;;;;;;17.90;57.00;;;;;;5002462;28;19944;-66
2022/03/12 00:18:30;;;;;;;;;;;17.80;56.80;;;;;;5002995;28;20548;-66
2022/03/12 00:20:58;;;;;;;;;;;17.80;56.70;;;;;;5003604;28;19913;-66
2022/03/12 00:23:28;;;;;;;;;;;17.80;56.60;;;;;;5012198;28;19917;-67
2022/03/12 00:25:53;;;;;;;;;;;17.80;56.60;;;;;;5006072;28;20583;-66
2022/03/12 00:28:19;;;;;;;;;;;17.80;56.50;;;;;;5006390;28;19913;-66
2022/03/12 00:30:45;;;;;;;;;;;17.80;56.50;;;;;;5005094;28;20411;-67
2022/03/12 00:33:11;;;;;;;;;;;17.70;56.40;;;;;;5010857;28;19917;-66
2022/03/12 00:35:36;;;;;;;;;;;17.70;56.30;;;;;;5005649;28;19914;-66
2022/03/12 00:38:03;;;;;;;;;;;17.70;56.30;;;;;;5007550;28;19914;-66
2022/03/12 00:40:29;;;;;;;;;;;17.70;56.20;;;;;;5005660;28;19941;-66
2022/03/12 00:42:54;;;;;;;;;;;17.70;56.20;;;;;;5008223;28;19913;-65
2022/03/12 00:45:20;;;;;;;;;;;17.60;56.00;;;;;;5006383;28;19914;-66
2022/03/12 00:47:48;;;;;;;;;;;17.70;56.00;;;;;;5005587;28;19920;-67
2022/03/12 00:50:13;;;;;;;;;;;17.70;55.70;;;;;;5004566;28;19921;-67
2022/03/12 00:52:38;;;;;;;;;;;17.70;55.30;;;;;;5004460;28;19935;-66
2022/03/12 00:55:04;;;;;;;;;;;17.60;55.20;;;;;;5007400;28;19971;-66
2022/03/12 00:57:30;;;;;;;;;;;17.70;55.10;;;;;;5006115;28;19917;-66
2022/03/12 00:59:55;;;;;;;;;;;17.70;54.90;;;;;;5004592;28;19914;-66
2022/03/12 01:02:21;;;;;;;;;;;17.60;54.80;;;;;;5004811;28;19922;-66
2022/03/12 01:04:46;;;;;;;;;;;17.70;54.80;;;;;;5006628;28;19925;-66
2022/03/12 01:07:12;;;;;;;;;;;17.60;54.80;;;;;;5005504;28;19929;-66
2022/03/12 01:09:38;;;;;;;;;;;17.60;54.50;;;;;;5006505;28;19921;-66
2022/03/12 01:12:04;;;;;;;;;;;17.60;54.60;;;;;;5005972;28;19913;-66
2022/03/12 01:14:29;;;;;;;;;;;17.60;54.60;;;;;;5005193;28;20004;-66
2022/03/12 01:17:01;;;;;;;;;;;17.60;54.50;;;;;;5005013;28;19921;-67
2022/03/12 01:19:26;;;;;;;;;;;17.50;54.40;;;;;;5005325;28;19914;-66
2022/03/12 01:21:52;;;;;;;;;;;17.50;54.40;;;;;;5005378;28;19917;-66
2022/03/12 01:24:17;;;;;;;;;;;17.50;54.50;;;;;;5006339;28;19957;-66
2022/03/12 01:26:43;;;;;;;;;;;17.50;54.40;;;;;;5004971;28;19999;-66
2022/03/12 01:29:08;;;;;;;;;;;17.40;54.40;;;;;;5003769;28;20372;-66
2022/03/12 01:31:34;;;;;;;;;;;17.50;54.30;;;;;;5003429;28;19913;-66
2022/03/12 01:34:00;;;;;;;;;;;17.40;54.30;;;;;;5004713;28;19918;-67
2022/03/12 01:36:25;;;;;;;;;;;17.40;54.30;;;;;;5004045;28;20002;-66
2022/03/12 01:38:52;;;;;;;;;;;17.40;54.30;;;;;;5003795;28;19924;-65
2022/03/12 01:41:21;;;;;;;;;;;17.40;54.20;;;;;;5006347;28;19914;-65
2022/03/12 01:43:47;;;;;;;;;;;17.40;54.20;;;;;;5005136;28;19932;-65
2022/03/12 01:46:13;;;;;;;;;;;17.40;54.10;;;;;;5005793;28;20004;-66
2022/03/12 01:48:41;;;;;;;;;;;17.40;54.10;;;;;;5004899;28;20032;-67
2022/03/12 01:51:06;;;;;;;;;;;17.40;54.00;;;;;;5005372;28;19928;-66
2022/03/12 01:53:32;;;;;;;;;;;17.40;54.10;;;;;;5003666;28;19913;-66
2022/03/12 01:55:57;;;;;;;;;;;17.40;54.70;;;;;;5004931;28;19917;-62
2022/03/12 01:58:30;;;;;;;;;;;17.40;54.00;;;;;;5004621;28;19928;-67
2022/03/12 02:00:57;;;;;;;;;;;17.40;53.80;;;;;;5006957;28;19952;-65
2022/03/12 02:03:26;;;;;;;;;;;17.40;54.20;;;;;;4999973;28;19921;-64
2022/03/12 02:05:52;;;;;;;;;;;17.30;54.10;;;;;;5008198;28;19937;-64
2022/03/12 02:08:17;;;;;;;;;;;17.30;54.20;;;;;;5008713;28;20002;-66
2022/03/12 02:10:43;;;;;;;;;;;17.30;54.20;;;;;;5012659;28;19917;-68
2022/03/12 02:13:09;;;;;;;;;;;17.10;54.30;;;;;;5006293;28;19913;-67
2022/03/12 02:15:34;;;;;;;;;;;17.00;54.40;;;;;;5007596;28;19914;-66
2022/03/12 02:18:00;;;;;;;;;;;17.10;54.20;;;;;;5006022;28;19917;-66
2022/03/12 02:20:25;;;;;;;;;;;17.10;54.00;;;;;;5003427;28;19914;-66
2022/03/12 02:22:54;;;;;;;;;;;17.20;53.70;;;;;;5005931;28;19920;-66
2022/03/12 02:25:27;;;;;;;;;;;17.20;53.40;;;;;;5002898;28;19918;-66
2022/03/12 02:27:53;;;;;;;;;;;17.20;53.10;;;;;;5001271;28;19913;-67
2022/03/12 02:30:19;;;;;;;;;;;17.30;53.00;;;;;;5005143;28;19917;-67
2022/03/12 02:32:45;;;;;;;;;;;17.20;53.00;;;;;;5002932;28;19984;-66
2022/03/12 02:35:11;;;;;;;;;;;17.20;53.00;;;;;;5011488;28;20383;-66
2022/03/12 02:37:38;;;;;;;;;;;17.20;53.00;;;;;;5004360;28;20331;-66
2022/03/12 02:40:05;;;;;;;;;;;17.20;53.10;;;;;;5005417;28;19913;-66
2022/03/12 02:42:31;;;;;;;;;;;17.10;53.10;;;;;;5004762;28;19940;-66
2022/03/12 02:45:00;;;;;;;;;;;17.10;53.10;;;;;;5004093;28;19917;-66
2022/03/12 02:47:29;;;;;;;;;;;17.10;53.10;;;;;;5005136;28;19914;-66
2022/03/12 02:49:56;;;;;;;;;;;17.00;53.10;;;;;;5002563;28;19918;-66
2022/03/12 02:52:22;;;;;;;;;;;17.00;53.10;;;;;;5004076;28;20004;-66
2022/03/12 02:54:48;;;;;;;;;;;17.00;53.20;;;;;;5006270;28;20052;-66
2022/03/12 02:57:13;;;;;;;;;;;17.00;53.20;;;;;;5005475;28;20288;-66
2022/03/12 02:59:43;;;;;;;;;;;16.90;53.20;;;;;;5008266;28;19931;-66
2022/03/12 03:02:08;;;;;;;;;;;16.90;53.20;;;;;;5003907;28;20324;-66
2022/03/12 03:04:39;;;;;;;;;;;17.00;53.10;;;;;;5003291;28;20068;-66
2022/03/12 03:07:08;;;;;;;;;;;16.90;53.00;;;;;;5003834;28;20446;-66
2022/03/12 03:09:34;;;;;;;;;;;17.00;53.10;;;;;;5004681;28;19952;-66
2022/03/12 03:12:06;;;;;;;;;;;16.90;53.10;;;;;;5009005;28;20372;-67
2022/03/12 03:14:31;;;;;;;;;;;16.90;53.20;;;;;;5003666;28;20548;-66
2022/03/12 03:16:58;;;;;;;;;;;16.90;53.30;;;;;;5003826;28;19949;-66
2022/03/12 03:19:26;;;;;;;;;;;16.90;53.50;;;;;;5003827;28;20608;-66
2022/03/12 03:21:52;;;;;;;;;;;16.80;53.40;;;;;;5004727;28;20063;-66
2022/03/12 03:24:17;;;;;;;;;;;16.80;53.40;;;;;;5002929;28;20706;-66
2022/03/12 03:26:43;;;;;;;;;;;16.90;53.30;;;;;;5005871;28;19922;-66
2022/03/12 03:29:09;;;;;;;;;;;16.90;53.50;;;;;;5003682;28;19913;-66
2022/03/12 03:31:34;;;;;;;;;;;16.80;54.00;;;;;;5002726;28;19925;-66
2022/03/12 03:34:00;;;;;;;;;;;17.00;54.60;;;;;;5003747;28;20323;-66
2022/03/12 03:36:25;;;;;;;;;;;17.10;53.50;;;;;;5002295;28;19917;-64
2022/03/12 03:38:51;;;;;;;;;;;17.20;53.30;;;;;;5003585;28;20059;-66
2022/03/12 03:41:16;;;;;;;;;;;17.30;53.50;;;;;;5004977;28;19920;-66
2022/03/12 03:43:43;;;;;;;;;;;17.40;53.30;;;;;;5002587;28;19917;-66
2022/03/12 03:46:09;;;;;;;;;;;17.50;53.00;;;;;;5006512;28;19917;-66
2022/03/12 03:48:38;;;;;;;;;;;17.60;52.80;;;;;;4986648;28;19920;-66
2022/03/12 03:51:03;;;;;;;;;;;17.60;52.80;;;;;;5005229;28;20033;-66
2022/03/12 03:53:28;;;;;;;;;;;17.70;52.60;;;;;;5006300;28;20596;-67
2022/03/12 03:55:55;;;;;;;;;;;17.80;52.40;;;;;;5008350;28;19922;-64
2022/03/12 03:58:21;;;;;;;;;;;17.80;52.20;;;;;;5006539;28;19914;-65
2022/03/12 04:00:52;;;;;;;;;;;17.90;52.10;;;;;;5005850;28;19987;-66
2022/03/12 04:03:18;;;;;;;;;;;17.90;52.10;;;;;;5006195;28;19921;-65
2022/03/12 04:05:44;;;;;;;;;;;18.00;51.90;;;;;;5004703;28;19937;-66
2022/03/12 04:08:10;;;;;;;;;;;18.00;51.80;;;;;;5006417;28;19918;-65
2022/03/12 04:10:36;;;;;;;;;;;18.10;51.70;;;;;;5004511;28;19917;-66
2022/03/12 04:13:01;;;;;;;;;;;18.10;51.60;;;;;;5009945;28;19913;-64
2022/03/12 04:15:27;;;;;;;;;;;18.10;51.50;;;;;;5006440;28;20008;-65
2022/03/12 04:17:53;;;;;;;;;;;18.20;51.50;;;;;;5011255;28;19914;-65
2022/03/12 04:20:19;;;;;;;;;;;18.20;51.50;;;;;;5005065;28;19920;-65
2022/03/12 04:22:46;;;;;;;;;;;18.20;51.40;;;;;;5005678;28;19996;-70
2022/03/12 04:25:12;;;;;;;;;;;18.20;51.20;;;;;;5005117;28;19921;-65
2022/03/12 04:27:44;;;;;;;;;;;18.20;51.40;;;;;;5014196;28;19920;-64
2022/03/12 04:30:13;;;;;;;;;;;18.10;51.40;;;;;;5004382;28;19968;-65
2022/03/12 04:32:39;;;;;;;;;;;18.20;51.60;;;;;;5005783;28;20115;-65
2022/03/12 04:35:05;;;;;;;;;;;18.10;51.40;;;;;;5003728;28;19913;-63
2022/03/12 04:37:30;;;;;;;;;;;18.00;51.60;;;;;;5011701;28;19928;-65
2022/03/12 04:39:56;;;;;;;;;;;18.10;51.40;;;;;;5005610;28;19914;-66
2022/03/12 04:42:22;;;;;;;;;;;18.10;51.40;;;;;;5011071;28;19951;-65
2022/03/12 04:44:48;;;;;;;;;;;18.10;51.50;;;;;;5005353;28;19953;-65
2022/03/12 04:47:13;;;;;;;;;;;18.00;51.60;;;;;;5009751;28;19976;-63
2022/03/12 04:49:38;;;;;;;;;;;17.90;51.80;;;;;;5006262;28;19976;-66
2022/03/12 04:52:04;;;;;;;;;;;17.80;51.90;;;;;;5003281;28;19925;-65
2022/03/12 04:54:33;;;;;;;;;;;17.80;52.10;;;;;;5005477;28;19917;-65
2022/03/12 04:56:58;;;;;;;;;;;17.70;52.20;;;;;;5006661;28;20006;-66
2022/03/12 04:59:24;;;;;;;;;;;17.70;52.20;;;;;;5003341;28;19913;-63
2022/03/12 05:01:49;;;;;;;;;;;17.70;52.90;;;;;;5003745;28;19914;-66
2022/03/12 05:04:15;;;;;;;;;;;17.70;52.30;;;;;;5003146;28;19933;-65
2022/03/12 05:06:40;;;;;;;;;;;17.70;52.40;;;;;;5002862;28;20368;-65
2022/03/12 05:09:06;;;;;;;;;;;17.60;52.50;;;;;;5003875;28;20368;-65
2022/03/12 05:11:34;;;;;;;;;;;17.60;52.40;;;;;;5004645;28;19952;-65
2022/03/12 05:13:59;;;;;;;;;;;17.60;52.60;;;;;;5012930;28;19917;-65
2022/03/12 05:16:27;;;;;;;;;;;17.50;52.40;;;;;;5005915;28;19936;-66
2022/03/12 05:18:53;;;;;;;;;;;17.60;52.40;;;;;;5002239;28;19933;-66
2022/03/12 05:21:19;;;;;;;;;;;17.60;52.20;;;;;;5004612;28;19917;-65
2022/03/12 05:23:44;;;;;;;;;;;17.70;52.00;;;;;;5006840;28;20012;-68
2022/03/12 05:26:09;;;;;;;;;;;17.60;52.10;;;;;;5005098;28;20516;-65
2022/03/12 05:28:39;;;;;;;;;;;17.60;52.10;;;;;;5005330;28;19917;-65
2022/03/12 05:31:05;;;;;;;;;;;17.60;52.30;;;;;;5005220;28;19940;-66
2022/03/12 05:33:30;;;;;;;;;;;17.50;52.10;;;;;;5007186;28;20416;-66
2022/03/12 05:35:56;;;;;;;;;;;17.50;52.20;;;;;;5003797;28;19987;-66
2022/03/12 05:38:21;;;;;;;;;;;17.50;52.30;;;;;;5003130;28;20300;-65
2022/03/12 05:40:48;;;;;;;;;;;17.50;52.40;;;;;;5003560;28;19922;-66
2022/03/12 05:43:15;;;;;;;;;;;17.50;52.20;;;;;;5003133;28;19914;-65
2022/03/12 05:45:40;;;;;;;;;;;17.50;52.40;;;;;;5004614;28;19925;-64
2022/03/12 05:48:08;;;;;;;;;;;17.40;52.30;;;;;;5005164;28;19913;-66
2022/03/12 05:50:33;;;;;;;;;;;17.40;52.40;;;;;;5003519;28;20913;-66
2022/03/12 05:52:59;;;;;;;;;;;17.40;52.20;;;;;;5004424;28;19920;-66
2022/03/12 05:55:24;;;;;;;;;;;17.40;52.90;;;;;;5004736;28;19914;-65
2022/03/12 05:57:50;;;;;;;;;;;17.40;52.30;;;;;;5002883;28;19920;-66
2022/03/12 06:00:16;;;;;;;;;;;17.30;52.40;;;;;;5001984;28;19917;-65
2022/03/12 06:02:52;;;;;;;;;;;17.30;52.20;;;;;;5004118;28;19917;-66
2022/03/12 06:05:18;;;;;;;;;;;17.30;52.40;;;;;;5002606;28;19965;-65
2022/03/12 06:07:45;;;;;;;;;;;17.30;52.40;;;;;;5002609;28;19983;-66
2022/03/12 06:10:14;;;;;;;;;;;17.30;52.40;;;;;;4986407;28;19920;-62
2022/03/12 06:12:43;;;;;;;;;;;17.30;52.50;;;;;;5003400;28;19927;-66
2022/03/12 06:15:09;;;;;;;;;;;17.30;52.50;;;;;;5019127;28;19960;-66
2022/03/12 06:17:35;;;;;;;;;;;17.30;52.50;;;;;;5002217;28;19940;-66
2022/03/12 06:20:00;;;;;;;;;;;17.40;52.50;;;;;;5003636;28;20564;-66
2022/03/12 06:22:26;;;;;;;;;;;17.40;52.50;;;;;;5003751;28;19913;-64
2022/03/12 06:24:52;;;;;;;;;;;17.30;52.50;;;;;;5007712;28;19980;-65
2022/03/12 06:27:20;;;;;;;;;;;17.40;52.40;;;;;;5005413;28;20747;-66
2022/03/12 06:29:46;;;;;;;;;;;17.30;52.60;;;;;;5009024;28;19988;-64
2022/03/12 06:32:13;;;;;;;;;;;17.30;52.70;;;;;;5004139;28;20083;-65
2022/03/12 06:34:40;;;;;;;;;;;17.30;52.70;;;;;;5012140;28;20400;-65
2022/03/12 06:37:07;;;;;;;;;;;17.40;52.80;;;;;;5020039;28;19914;-63
2022/03/12 06:39:32;;;;;;;;;;;17.40;52.70;;;;;;5002712;28;20512;-67
2022/03/12 06:42:01;;;;;;;;;;;17.40;52.70;;;;;;5002977;28;19913;-65
2022/03/12 06:44:30;;;;;;;;;;;17.40;52.70;;;;;;5004776;28;19921;-62
2022/03/12 06:46:55;;;;;;;;;;;17.40;52.80;;;;;;5005177;28;20377;-65
2022/03/12 06:49:21;;;;;;;;;;;17.30;52.80;;;;;;4985585;28;19917;-63
2022/03/12 06:51:46;;;;;;;;;;;17.40;52.80;;;;;;5004070;28;20459;-65
2022/03/12 06:54:12;;;;;;;;;;;17.30;52.90;;;;;;5006930;28;19913;-65
2022/03/12 06:56:39;;;;;;;;;;;17.30;53.00;;;;;;5005825;28;19913;-65
2022/03/12 06:59:04;;;;;;;;;;;17.30;52.90;;;;;;5007433;28;19940;-65
2022/03/12 07:01:30;;;;;;;;;;;17.30;53.00;;;;;;5009429;28;19913;-65
2022/03/12 07:03:55;;;;;;;;;;;17.30;52.90;;;;;;5005430;28;20658;-66
2022/03/12 07:06:21;;;;;;;;;;;17.30;52.90;;;;;;5006373;28;20440;-64
2022/03/12 07:08:46;;;;;;;;;;;17.30;52.70;;;;;;5003589;28;19913;-63
2022/03/12 07:11:13;;;;;;;;;;;17.40;52.70;;;;;;5004601;28;19956;-66
2022/03/12 07:13:38;;;;;;;;;;;17.40;52.60;;;;;;4996539;28;19921;-66
2022/03/12 07:16:04;;;;;;;;;;;17.40;52.60;;;;;;5001730;28;20283;-66
2022/03/12 07:18:29;;;;;;;;;;;17.30;52.50;;;;;;4996858;28;19932;-65
2022/03/12 07:20:55;;;;;;;;;;;17.40;52.60;;;;;;5004994;28;19920;-66
2022/03/12 07:23:21;;;;;;;;;;;17.40;52.50;;;;;;5006562;28;19967;-67
2022/03/12 07:25:47;;;;;;;;;;;17.40;52.40;;;;;;4989214;28;19949;-67
2022/03/12 07:28:17;;;;;;;;;;;17.50;52.60;;;;;;5006115;28;19952;-67
2022/03/12 07:30:42;;;;;;;;;;;17.50;52.70;;;;;;5004718;28;20376;-64
2022/03/12 07:33:09;;;;;;;;;;;17.50;52.80;;;;;;5006364;28;19921;-63
2022/03/12 07:35:34;;;;;;;;;;;17.40;52.90;;;;;;5007241;28;19920;-66
2022/03/12 07:38:00;;;;;;;;;;;17.40;53.00;;;;;;5009265;28;19918;-67
2022/03/12 07:40:25;;;;;;;;;;;17.50;53.10;;;;;;5016668;28;19913;-66
2022/03/12 07:42:51;;;;;;;;;;;17.50;53.00;;;;;;5010250;28;19922;-66
2022/03/12 07:45:16;;;;;;;;;;;17.40;53.20;;;;;;5010303;28;19940;-66
2022/03/12 07:47:42;;;;;;;;;;;17.30;53.30;;;;;;5009738;28;20490;-66
2022/03/12 07:50:08;;;;;;;;;;;17.40;53.10;;;;;;5010354;28;19937;-66
2022/03/12 07:52:33;;;;;;;;;;;17.40;53.00;;;;;;5010590;28;20385;-66
2022/03/12 07:54:59;;;;;;;;;;;17.40;53.00;;;;;;5011246;28;20397;-66
2022/03/12 07:57:26;;;;;;;;;;;17.40;52.90;;;;;;5007743;28;19917;-67
2022/03/12 07:59:52;;;;;;;;;;;17.50;52.60;;;;;;5010538;28;19987;-66
2022/03/12 08:02:18;;;;;;;;;;;17.40;52.80;;;;;;5007483;28;19918;-66
2022/03/12 08:04:43;;;;;;;;;;;17.40;52.80;;;;;;5008473;28;20007;-66
2022/03/12 08:07:09;;;;;;;;;;;17.40;52.60;;;;;;5015481;28;19913;-66
2022/03/12 08:09:34;;;;;;;;;;;17.50;52.40;;;;;;5005980;28;19914;-67
2022/03/12 08:12:00;;;;;;;;;;;17.40;52.50;;;;;;5007675;28;20335;-66
2022/03/12 08:14:25;;;;;;;;;;;17.40;52.80;;;;;;5008461;28;19914;-66
2022/03/12 08:16:52;;;;;;;;;;;17.40;52.80;;;;;;5009668;28;19971;-66
2022/03/12 08:19:18;;;;;;;;;;;17.40;52.40;;;;;;5009656;28;20304;-64
2022/03/12 08:21:44;;;;;;;;;;;17.40;52.20;;;;;;5011255;28;19914;-66
2022/03/12 08:24:10;;;;;;;;;;;17.50;52.10;;;;;;5010867;28;19917;-66
2022/03/12 08:26:37;;;;;;;;;;;17.50;51.90;;;;;;5008083;28;19913;-65
2022/03/12 08:29:02;;;;;;;;;;;17.50;51.90;;;;;;5008594;28;19967;-66
2022/03/12 08:31:27;;;;;;;;;;;17.50;52.00;;;;;;5010552;28;19921;-65
2022/03/12 08:33:53;;;;;;;;;;;17.50;52.20;;;;;;5008925;28;20419;-65
2022/03/12 08:36:18;;;;;;;;;;;17.40;52.30;;;;;;5007858;28;19914;-66
2022/03/12 08:38:44;;;;;;;;;;;17.40;52.40;;;;;;5008970;28;19913;-67
2022/03/12 08:41:11;;;;;;;;;;;17.30;52.50;;;;;;5016196;28;19916;-65
2022/03/12 08:43:37;;;;;;;;;;;17.30;52.30;;;;;;5007367;28;20296;-63
2022/03/12 08:46:03;;;;;;;;;;;17.30;52.50;;;;;;5011067;28;19913;-64
2022/03/12 08:48:29;;;;;;;;;;;17.30;52.70;;;;;;5006776;28;19920;-65
2022/03/12 08:50:55;;;;;;;;;;;17.20;53.00;;;;;;5004521;28;19956;-67
2022/03/12 08:53:21;;;;;;;;;;;17.20;53.10;;;;;;5005838;28;19956;-67
2022/03/12 08:55:47;;;;;;;;;;;17.20;53.40;;;;;;5004424;28;19921;-65
2022/03/12 08:58:12;;;;;;;;;;;17.20;53.50;;;;;;5006553;28;19913;-66
2022/03/12 09:00:37;;;;;;;;;;;17.30;52.80;;;;;;5009120;28;19984;-66
2022/03/12 09:03:03;;;;;;;;;;;17.30;52.40;;;;;;4991885;28;19920;-66
2022/03/12 09:05:29;;;;;;;;;;;17.30;52.50;;;;;;5009609;28;19960;-65
2022/03/12 09:07:54;;;;;;;;;;;17.40;52.50;;;;;;5008310;28;19914;-66
2022/03/12 09:10:20;;;;;;;;;;;17.40;52.30;;;;;;5005494;28;19917;-66
2022/03/12 09:12:46;;;;;;;;;;;17.40;52.00;;;;;;5009203;28;20518;-66
2022/03/12 09:15:12;;;;;;;;;;;17.50;52.00;;;;;;5006430;28;19913;-66
2022/03/12 09:17:37;;;;;;;;;;;17.50;51.80;;;;;;5005052;28;20300;-66
2022/03/12 09:20:03;;;;;;;;;;;17.50;52.10;;;;;;5004779;28;19921;-68
2022/03/12 09:22:29;;;;;;;;;;;17.60;52.20;;;;;;5004307;28;20004;-66
2022/03/12 09:24:54;;;;;;;;;;;17.60;52.40;;;;;;5005117;28;19918;-67
2022/03/12 09:27:20;;;;;;;;;;;17.60;52.30;;;;;;5005704;28;19921;-66
2022/03/12 09:29:45;;;;;;;;;;;17.70;52.00;;;;;;5003143;28;20033;-67
2022/03/12 09:32:11;;;;;;;;;;;17.80;51.90;;;;;;5004755;28;20665;-67
2022/03/12 09:34:37;;;;;;;;;;;17.80;51.80;;;;;;5003268;28;19933;-67
2022/03/12 09:37:03;;;;;;;;;;;17.90;51.70;;;;;;5009754;28;19913;-67
2022/03/12 09:39:28;;;;;;;;;;;17.90;51.50;;;;;;5003385;28;19914;-67
2022/03/12 09:41:54;;;;;;;;;;;17.90;51.30;;;;;;5007426;28;19913;-67
2022/03/12 09:44:19;;;;;;;;;;;18.00;50.90;;;;;;5002842;28;20040;-67
2022/03/12 09:46:45;;;;;;;;;;;18.00;50.80;;;;;;5004449;28;19920;-67
2022/03/12 09:49:11;;;;;;;;;;;18.00;50.80;;;;;;5004614;28;19918;-67
2022/03/12 09:51:37;;;;;;;;;;;18.00;50.70;;;;;;5006005;28;20276;-67
2022/03/12 09:54:03;;;;;;;;;;;18.10;50.60;;;;;;5003309;28;19921;-67
2022/03/12 09:56:29;;;;;;;;;;;18.10;50.50;;;;;;5005258;28;19929;-68
2022/03/12 09:58:54;;;;;;;;;;;18.10;50.40;;;;;;5007597;28;19914;-67
2022/03/12 10:01:20;;;;;;;;;;;18.20;50.30;;;;;;5003990;28;19925;-65
2022/03/12 10:03:45;;;;;;;;;;;18.30;50.20;;;;;;5002799;28;19953;-68
2022/03/12 10:06:11;;;;;;;;;;;18.40;50.20;;;;;;5002753;28;19922;-67
2022/03/12 10:08:37;;;;;;;;;;;18.40;50.00;;;;;;5007207;28;19921;-67
2022/03/12 10:11:04;;;;;;;;;;;18.50;49.90;;;;;;5002992;28;20403;-67
2022/03/12 10:13:30;;;;;;;;;;;18.60;49.80;;;;;;5004927;28;19913;-68
2022/03/12 10:15:55;;;;;;;;;;;18.60;49.80;;;;;;5004575;28;20419;-67
2022/03/12 10:18:22;;;;;;;;;;;18.60;49.70;;;;;;5005817;28;19974;-67
2022/03/12 10:20:48;;;;;;;;;;;18.60;49.70;;;;;;5002184;28;20436;-67
2022/03/12 10:23:13;;;;;;;;;;;18.60;49.80;;;;;;5002549;28;19944;-67
2022/03/12 10:25:39;;;;;;;;;;;18.60;49.70;;;;;;5003979;28;19921;-67
2022/03/12 10:28:04;;;;;;;;;;;18.60;49.70;;;;;;5004461;28;19974;-68
2022/03/12 10:30:30;;;;;;;;;;;18.60;49.70;;;;;;5002290;28;19913;-67
2022/03/12 10:32:55;;;;;;;;;;;18.60;49.80;;;;;;5003901;28;20006;-67
2022/03/12 10:35:21;;;;;;;;;;;18.60;49.80;;;;;;5003467;28;20059;-67
2022/03/12 10:37:47;;;;;;;;;;;18.60;49.70;;;;;;5003215;28;19921;-67
2022/03/12 10:40:16;;;;;;;;;;;18.60;49.70;;;;;;5003140;28;19920;-66
2022/03/12 10:42:45;;;;;;;;;;;18.60;49.60;;;;;;5003255;28;20518;-67
2022/03/12 10:45:15;;;;;;;;;;;18.60;49.50;;;;;;5001644;28;20008;-67
2022/03/12 10:47:41;;;;;;;;;;;18.60;49.80;;;;;;5002617;28;20051;-67
2022/03/12 10:50:08;;;;;;;;;;;18.60;49.70;;;;;;5002513;28;19925;-68
2022/03/12 10:52:38;;;;;;;;;;;18.70;49.70;;;;;;5003584;28;19968;-67
2022/03/12 10:55:11;;;;;;;;;;;18.60;49.70;;;;;;5005315;28;19979;-64
2022/03/12 10:57:37;;;;;;;;;;;18.60;50.40;;;;;;5003284;28;19983;-68
2022/03/12 11:00:08;;;;;;;;;;;18.60;49.90;;;;;;5001842;28;20544;-67
2022/03/12 11:02:33;;;;;;;;;;;18.50;50.00;;;;;;5003398;28;19952;-67
2022/03/12 11:05:03;;;;;;;;;;;18.50;50.20;;;;;;5005730;28;20468;-67
2022/03/12 11:07:30;;;;;;;;;;;18.60;50.00;;;;;;5002576;28;19913;-63
2022/03/12 11:09:55;;;;;;;;;;;18.70;49.80;;;;;;5002577;28;20436;-67
2022/03/12 11:12:37;;;;;;;;;;;18.70;49.90;;;;;;5003259;28;19964;-64
2022/03/12 11:15:06;;;;;;;;;;;18.80;49.80;;;;;;5018663;28;19920;-67
2022/03/12 11:17:43;;;;;;;;;;;18.80;49.80;;;;;;5002051;28;19913;-67
2022/03/12 11:20:15;;;;;;;;;;;18.80;49.70;;;;;;5001201;28;19991;-68
2022/03/12 11:22:40;;;;;;;;;;;18.70;49.70;;;;;;5001592;28;20482;-67
2022/03/12 11:25:06;;;;;;;;;;;18.70;49.60;;;;;;5005149;28;19925;-67
2022/03/12 11:27:32;;;;;;;;;;;18.70;49.80;;;;;;5003088;28;19929;-67
2022/03/12 11:29:59;;;;;;;;;;;18.70;49.60;;;;;;5010755;28;19918;-66
2022/03/12 11:32:26;;;;;;;;;;;18.60;49.70;;;;;;5003032;28;19914;-67
2022/03/12 11:34:59;;;;;;;;;;;18.50;50.00;;;;;;5002655;28;19920;-67
2022/03/12 11:37:25;;;;;;;;;;;18.50;49.90;;;;;;5000272;28;19913;-67
2022/03/12 11:39:51;;;;;;;;;;;18.50;50.00;;;;;;5004268;28;19920;-67
2022/03/12 11:42:17;;;;;;;;;;;18.40;50.30;;;;;;5002896;28;19913;-67
2022/03/12 11:44:46;;;;;;;;;;;18.40;50.70;;;;;;5002738;28;20001;-67
2022/03/12 11:47:15;;;;;;;;;;;18.30;51.30;;;;;;5001154;28;19918;-68
2022/03/12 11:49:41;;;;;;;;;;;18.40;51.70;;;;;;5003901;28;20414;-67
2022/03/12 11:52:07;;;;;;;;;;;18.40;51.80;;;;;;5001089;28;19913;-68
2022/03/12 11:54:35;;;;;;;;;;;18.40;52.10;;;;;;5002987;28;19960;-67
2022/03/12 11:57:01;;;;;;;;;;;18.30;52.30;;;;;;5003131;28;19914;-67
2022/03/12 11:59:26;;;;;;;;;;;18.40;52.70;;;;;;5001771;28;19960;-67
2022/03/12 12:02:01;;;;;;;;;;;18.40;52.80;;;;;;5003318;28;19936;-67
2022/03/12 12:04:32;;;;;;;;;;;18.40;52.80;;;;;;5002675;28;20702;-63
2022/03/12 12:06:59;;;;;;;;;;;18.40;52.80;;;;;;5002321;28;19993;-67
2022/03/12 12:09:24;;;;;;;;;;;18.40;53.00;;;;;;5006491;28;20305;-64
2022/03/12 12:11:50;;;;;;;;;;;18.40;53.10;;;;;;5005093;28;20570;-67
2022/03/12 12:14:18;;;;;;;;;;;18.40;53.20;;;;;;5001418;28;19964;-67
2022/03/12 12:16:45;;;;;;;;;;;18.20;53.30;;;;;;5003144;28;20402;-67
2022/03/12 12:19:11;;;;;;;;;;;18.30;53.30;;;;;;4988768;28;20472;-67
2022/03/12 12:21:36;;;;;;;;;;;18.30;53.20;;;;;;5005481;28;19914;-67
2022/03/12 12:24:21;;;;;;;;;;;18.20;53.30;;;;;;5006748;28;20442;-65
2022/03/12 12:26:56;;;;;;;;;;;18.20;53.40;;;;;;5005035;28;20387;-67
2022/03/12 12:29:54;;;;;;;;;;;18.30;53.30;;;;;;5005140;28;20471;-64
2022/03/12 12:32:23;;;;;;;;;;;18.30;53.00;;;;;;4950736;28;20440;-67
2022/03/12 12:34:58;;;;;;;;;;;18.30;53.10;;;;;;5004077;28;20418;-67
2022/03/12 12:37:42;;;;;;;;;;;18.20;53.10;;;;;;5005032;28;19914;-67
2022/03/12 12:40:12;;;;;;;;;;;18.30;53.00;;;;;;5005171;28;19957;-67
2022/03/12 12:42:40;;;;;;;;;;;18.30;52.80;;;;;;5005607;28;19963;-64
2022/03/12 12:45:07;;;;;;;;;;;18.30;52.80;;;;;;5006792;28;20012;-67
2022/03/12 12:47:33;;;;;;;;;;;18.30;52.70;;;;;;5004074;28;20308;-67
2022/03/12 12:49:58;;;;;;;;;;;18.30;52.50;;;;;;5004595;28;19928;-67
2022/03/12 12:52:24;;;;;;;;;;;18.30;52.60;;;;;;5004212;28;19917;-67
2022/03/12 12:54:57;;;;;;;;;;;18.30;52.70;;;;;;4988050;28;20317;-66
2022/03/12 12:57:41;;;;;;;;;;;18.30;52.50;;;;;;5000708;28;19957;-67
2022/03/12 13:00:19;;;;;;;;;;;18.40;52.40;;;;;;5003210;28;19949;-67
2022/03/12 13:02:44;;;;;;;;;;;18.40;52.40;;;;;;5004514;28;19914;-68
2022/03/12 13:05:12;;;;;;;;;;;18.30;52.30;;;;;;5006825;28;20399;-68
2022/03/12 13:07:44;;;;;;;;;;;18.30;52.40;;;;;;5005880;28;19914;-67
2022/03/12 13:10:09;;;;;;;;;;;18.30;52.40;;;;;;4989884;28;20243;-68
2022/03/12 13:12:39;;;;;;;;;;;18.30;52.50;;;;;;5006669;28;20348;-68
2022/03/12 13:15:04;;;;;;;;;;;18.30;52.50;;;;;;5005180;28;19914;-67
2022/03/12 13:17:30;;;;;;;;;;;18.20;52.80;;;;;;5003889;28;20526;-68
2022/03/12 13:19:56;;;;;;;;;;;18.20;52.80;;;;;;5021067;28;20393;-68
2022/03/12 13:22:21;;;;;;;;;;;18.20;52.90;;;;;;5008842;28;19913;-68
2022/03/12 13:24:48;;;;;;;;;;;18.10;53.00;;;;;;5003700;28;19918;-68
2022/03/12 13:27:17;;;;;;;;;;;18.20;53.10;;;;;;5003500;28;19917;-68
2022/03/12 13:29:43;;;;;;;;;;;18.10;53.30;;;;;;5004567;28;19921;-68
2022/03/12 13:32:16;;;;;;;;;;;18.10;53.40;;;;;;5003855;28;19917;-68
2022/03/12 13:34:41;;;;;;;;;;;18.00;53.50;;;;;;5003100;28;19921;-68
2022/03/12 13:37:06;;;;;;;;;;;18.10;53.60;;;;;;5003804;28;19921;-68
2022/03/12 13:39:36;;;;;;;;;;;18.00;53.70;;;;;;5003445;28;19967;-68
2022/03/12 13:42:01;;;;;;;;;;;18.00;53.60;;;;;;5005417;28;19921;-68
2022/03/12 13:44:26;;;;;;;;;;;18.00;53.40;;;;;;5004495;28;19925;-68
2022/03/12 13:46:52;;;;;;;;;;;18.20;53.10;;;;;;5004845;28;19925;-67
2022/03/12 13:49:19;;;;;;;;;;;18.20;52.80;;;;;;5004147;28;20606;-68
2022/03/12 13:51:50;;;;;;;;;;;18.30;52.60;;;;;;5004403;28;19917;-68
2022/03/12 13:54:16;;;;;;;;;;;18.30;52.50;;;;;;5003153;28;19975;-68
2022/03/12 13:56:42;;;;;;;;;;;18.40;52.50;;;;;;5005924;28;20519;-68
2022/03/12 13:59:10;;;;;;;;;;;18.30;52.30;;;;;;5004061;28;19933;-68
2022/03/12 14:01:42;;;;;;;;;;;18.30;52.40;;;;;;5007118;28;19947;-68
2022/03/12 14:04:17;;;;;;;;;;;18.30;52.40;;;;;;5001571;28;19917;-68
2022/03/12 14:06:44;;;;;;;;;;;18.40;52.50;;;;;;5003608;28;19921;-69
2022/03/12 14:09:10;;;;;;;;;;;18.40;52.40;;;;;;5003240;28;19921;-68
2022/03/12 14:11:41;;;;;;;;;;;18.40;52.60;;;;;;5009580;28;20127;-68
2022/03/12 14:14:07;;;;;;;;;;;18.40;52.60;;;;;;4995474;28;19971;-67